sensor_id;sensor_type;location;lat;lon;timestamp;P1;durP1;ratioP1;P2;durP2;ratioP2
21567;SDS011;10944;42.590;12.630;2023-04-03T00:00:49;4.25;;;1.27;;
21567;SDS011;10944;42.590;12.630;2023-04-03T00:03:15;3.75;;;1.42;;
21567;SDS011;10944;42.590;12.630;2023-04-03T00:05:41;5.00;;;1.40;;
21567;SDS011;10944;42.590;12.630;2023-04-03T00:08:07;3.75;;;1.05;;
21567;SDS011;10944;42.590;12.630;2023-04-03T00:10:34;3.47;;;1.30;;
21567;SDS011;10944;42.590;12.630;2023-04-03T00:13:01;1.75;;;1.20;;
21567;SDS011;10944;42.590;12.630;2023-04-03T00:15:28;2.03;;;1.08;;
21567;SDS011;10944;42.590;12.630;2023-04-03T00:17:54;2.47;;;0.95;;
21567;SDS011;10944;42.590;12.630;2023-04-03T00:20:19;2.30;;;1.10;;
21567;SDS011;10944;42.590;12.630;2023-04-03T00:22:45;3.67;;;1.02;;
21567;SDS011;10944;42.590;12.630;2023-04-03T00:25:11;1.80;;;0.95;;
21567;SDS011;10944;42.590;12.630;2023-04-03T00:27:37;4.78;;;1.45;;
21567;SDS011;10944;42.590;12.630;2023-04-03T00:30:04;2.50;;;0.98;;
21567;SDS011;10944;42.590;12.630;2023-04-03T00:32:32;3.13;;;1.30;;
21567;SDS011;10944;42.590;12.630;2023-04-03T00:34:58;2.50;;;0.85;;
21567;SDS011;10944;42.590;12.630;2023-04-03T00:37:24;2.60;;;1.02;;
21567;SDS011;10944;42.590;12.630;2023-04-03T00:39:50;2.25;;;0.95;;
21567;SDS011;10944;42.590;12.630;2023-04-03T00:42:15;2.70;;;1.10;;
21567;SDS011;10944;42.590;12.630;2023-04-03T00:47:08;3.47;;;1.02;;
21567;SDS011;10944;42.590;12.630;2023-04-03T00:49:37;2.83;;;0.85;;
21567;SDS011;10944;42.590;12.630;2023-04-03T00:52:04;2.17;;;0.80;;
21567;SDS011;10944;42.590;12.630;2023-04-03T00:54:34;2.33;;;0.77;;
21567;SDS011;10944;42.590;12.630;2023-04-03T00:57:02;3.08;;;0.80;;
21567;SDS011;10944;42.590;12.630;2023-04-03T00:59:31;2.17;;;0.90;;
21567;SDS011;10944;42.590;12.630;2023-04-03T01:02:00;2.10;;;0.98;;
21567;SDS011;10944;42.590;12.630;2023-04-03T01:04:39;2.65;;;0.80;;
21567;SDS011;10944;42.590;12.630;2023-04-03T01:07:11;1.48;;;0.73;;
21567;SDS011;10944;42.590;12.630;2023-04-03T01:09:40;1.35;;;0.70;;
21567;SDS011;10944;42.590;12.630;2023-04-03T01:14:41;1.88;;;0.60;;
21567;SDS011;10944;42.590;12.630;2023-04-03T01:19:55;1.70;;;0.60;;
21567;SDS011;10944;42.590;12.630;2023-04-03T01:25:26;1.00;;;0.60;;
21567;SDS011;10944;42.590;12.630;2023-04-03T01:27:51;2.75;;;0.70;;
21567;SDS011;10944;42.590;12.630;2023-04-03T01:30:18;2.65;;;0.80;;
21567;SDS011;10944;42.590;12.630;2023-04-03T01:32:46;2.55;;;0.68;;
21567;SDS011;10944;42.590;12.630;2023-04-03T01:35:12;2.42;;;0.70;;
21567;SDS011;10944;42.590;12.630;2023-04-03T01:37:38;1.70;;;0.73;;
21567;SDS011;10944;42.590;12.630;2023-04-03T01:40:04;1.58;;;0.70;;
21567;SDS011;10944;42.590;12.630;2023-04-03T01:42:30;2.67;;;0.90;;
21567;SDS011;10944;42.590;12.630;2023-04-03T01:44:56;2.60;;;0.88;;
21567;SDS011;10944;42.590;12.630;2023-04-03T01:47:22;1.98;;;0.80;;
21567;SDS011;10944;42.590;12.630;2023-04-03T01:49:48;1.83;;;0.90;;
21567;SDS011;10944;42.590;12.630;2023-04-03T01:52:13;2.72;;;0.90;;
21567;SDS011;10944;42.590;12.630;2023-04-03T01:54:39;2.53;;;1.15;;
21567;SDS011;10944;42.590;12.630;2023-04-03T01:57:05;3.15;;;0.95;;
21567;SDS011;10944;42.590;12.630;2023-04-03T01:59:31;3.22;;;0.95;;
21567;SDS011;10944;42.590;12.630;2023-04-03T02:01:56;3.40;;;0.90;;
21567;SDS011;10944;42.590;12.630;2023-04-03T02:04:22;2.00;;;0.95;;
21567;SDS011;10944;42.590;12.630;2023-04-03T02:06:48;2.45;;;0.98;;
21567;SDS011;10944;42.590;12.630;2023-04-03T02:09:14;5.22;;;1.40;;
21567;SDS011;10944;42.590;12.630;2023-04-03T02:11:40;2.95;;;1.20;;
21567;SDS011;10944;42.590;12.630;2023-04-03T02:14:05;3.55;;;1.00;;
21567;SDS011;10944;42.590;12.630;2023-04-03T02:16:31;2.92;;;1.00;;
21567;SDS011;10944;42.590;12.630;2023-04-03T02:18:57;2.58;;;1.15;;
21567;SDS011;10944;42.590;12.630;2023-04-03T02:21:22;3.92;;;1.15;;
21567;SDS011;10944;42.590;12.630;2023-04-03T02:23:48;4.15;;;1.20;;
21567;SDS011;10944;42.590;12.630;2023-04-03T02:26:15;2.72;;;1.20;;
21567;SDS011;10944;42.590;12.630;2023-04-03T02:28:41;2.95;;;1.10;;
21567;SDS011;10944;42.590;12.630;2023-04-03T02:31:07;2.40;;;1.20;;
21567;SDS011;10944;42.590;12.630;2023-04-03T02:33:34;2.50;;;1.30;;
21567;SDS011;10944;42.590;12.630;2023-04-03T02:36:04;2.17;;;1.00;;
21567;SDS011;10944;42.590;12.630;2023-04-03T02:38:30;2.65;;;1.13;;
21567;SDS011;10944;42.590;12.630;2023-04-03T02:41:03;2.78;;;1.15;;
21567;SDS011;10944;42.590;12.630;2023-04-03T02:43:30;4.75;;;1.17;;
21567;SDS011;10944;42.590;12.630;2023-04-03T02:45:56;4.15;;;1.10;;
21567;SDS011;10944;42.590;12.630;2023-04-03T02:48:22;2.42;;;1.00;;
21567;SDS011;10944;42.590;12.630;2023-04-03T02:50:48;2.00;;;0.95;;
21567;SDS011;10944;42.590;12.630;2023-04-03T02:53:14;1.80;;;1.02;;
21567;SDS011;10944;42.590;12.630;2023-04-03T02:55:40;3.15;;;0.82;;
21567;SDS011;10944;42.590;12.630;2023-04-03T02:58:06;2.38;;;1.20;;
21567;SDS011;10944;42.590;12.630;2023-04-03T03:00:32;2.38;;;1.05;;
21567;SDS011;10944;42.590;12.630;2023-04-03T03:02:58;2.35;;;0.93;;
21567;SDS011;10944;42.590;12.630;2023-04-03T03:05:23;3.55;;;1.17;;
21567;SDS011;10944;42.590;12.630;2023-04-03T03:07:49;1.85;;;1.00;;
21567;SDS011;10944;42.590;12.630;2023-04-03T03:10:15;3.30;;;1.35;;
21567;SDS011;10944;42.590;12.630;2023-04-03T03:12:41;3.95;;;1.20;;
21567;SDS011;10944;42.590;12.630;2023-04-03T03:15:07;1.90;;;1.17;;
21567;SDS011;10944;42.590;12.630;2023-04-03T03:17:33;3.70;;;1.08;;
21567;SDS011;10944;42.590;12.630;2023-04-03T03:19:58;2.63;;;1.00;;
21567;SDS011;10944;42.590;12.630;2023-04-03T03:22:25;2.50;;;0.90;;
21567;SDS011;10944;42.590;12.630;2023-04-03T03:24:50;2.25;;;1.15;;
21567;SDS011;10944;42.590;12.630;2023-04-03T03:27:16;2.95;;;1.25;;
21567;SDS011;10944;42.590;12.630;2023-04-03T03:29:42;2.00;;;1.10;;
21567;SDS011;10944;42.590;12.630;2023-04-03T03:32:08;2.45;;;1.30;;
21567;SDS011;10944;42.590;12.630;2023-04-03T03:34:33;3.42;;;1.13;;
21567;SDS011;10944;42.590;12.630;2023-04-03T03:36:59;2.78;;;1.40;;
21567;SDS011;10944;42.590;12.630;2023-04-03T03:39:25;2.90;;;1.15;;
21567;SDS011;10944;42.590;12.630;2023-04-03T03:41:51;1.65;;;0.98;;
21567;SDS011;10944;42.590;12.630;2023-04-03T03:44:18;3.17;;;1.20;;
21567;SDS011;10944;42.590;12.630;2023-04-03T03:46:44;2.88;;;1.25;;
21567;SDS011;10944;42.590;12.630;2023-04-03T03:49:11;5.28;;;1.20;;
21567;SDS011;10944;42.590;12.630;2023-04-03T03:51:37;3.97;;;1.58;;
21567;SDS011;10944;42.590;12.630;2023-04-03T03:54:03;1.80;;;1.17;;
21567;SDS011;10944;42.590;12.630;2023-04-03T03:56:30;2.58;;;1.10;;
21567;SDS011;10944;42.590;12.630;2023-04-03T03:58:56;2.80;;;1.20;;
21567;SDS011;10944;42.590;12.630;2023-04-03T04:01:22;4.10;;;1.13;;
21567;SDS011;10944;42.590;12.630;2023-04-03T04:03:48;5.35;;;1.20;;
21567;SDS011;10944;42.590;12.630;2023-04-03T04:06:14;1.98;;;1.10;;
21567;SDS011;10944;42.590;12.630;2023-04-03T04:08:40;3.03;;;1.20;;
21567;SDS011;10944;42.590;12.630;2023-04-03T04:11:06;2.45;;;1.10;;
21567;SDS011;10944;42.590;12.630;2023-04-03T04:13:32;2.00;;;1.35;;
21567;SDS011;10944;42.590;12.630;2023-04-03T04:15:58;3.70;;;1.20;;
21567;SDS011;10944;42.590;12.630;2023-04-03T04:18:24;1.77;;;1.05;;
21567;SDS011;10944;42.590;12.630;2023-04-03T04:20:50;4.22;;;1.20;;
21567;SDS011;10944;42.590;12.630;2023-04-03T04:23:16;3.10;;;1.27;;
21567;SDS011;10944;42.590;12.630;2023-04-03T04:25:46;2.58;;;1.23;;
21567;SDS011;10944;42.590;12.630;2023-04-03T04:28:13;3.53;;;1.27;;
21567;SDS011;10944;42.590;12.630;2023-04-03T04:30:40;2.67;;;1.48;;
21567;SDS011;10944;42.590;12.630;2023-04-03T04:33:05;3.10;;;1.40;;
21567;SDS011;10944;42.590;12.630;2023-04-03T04:35:32;3.80;;;1.20;;
21567;SDS011;10944;42.590;12.630;2023-04-03T04:37:58;2.88;;;1.30;;
21567;SDS011;10944;42.590;12.630;2023-04-03T04:40:24;2.97;;;1.38;;
21567;SDS011;10944;42.590;12.630;2023-04-03T04:42:50;2.20;;;1.30;;
21567;SDS011;10944;42.590;12.630;2023-04-03T04:45:16;3.08;;;1.52;;
21567;SDS011;10944;42.590;12.630;2023-04-03T04:47:42;2.70;;;1.33;;
21567;SDS011;10944;42.590;12.630;2023-04-03T04:50:08;3.13;;;1.40;;
21567;SDS011;10944;42.590;12.630;2023-04-03T04:52:34;2.72;;;1.33;;
21567;SDS011;10944;42.590;12.630;2023-04-03T04:55:00;4.45;;;1.40;;
21567;SDS011;10944;42.590;12.630;2023-04-03T04:57:26;3.58;;;1.20;;
21567;SDS011;10944;42.590;12.630;2023-04-03T04:59:51;2.20;;;1.20;;
21567;SDS011;10944;42.590;12.630;2023-04-03T05:02:17;2.92;;;1.10;;
21567;SDS011;10944;42.590;12.630;2023-04-03T05:04:43;3.63;;;1.20;;
21567;SDS011;10944;42.590;12.630;2023-04-03T05:07:09;3.72;;;1.20;;
21567;SDS011;10944;42.590;12.630;2023-04-03T05:09:35;1.65;;;0.88;;
21567;SDS011;10944;42.590;12.630;2023-04-03T05:12:01;2.33;;;1.15;;
21567;SDS011;10944;42.590;12.630;2023-04-03T05:14:28;2.45;;;1.17;;
21567;SDS011;10944;42.590;12.630;2023-04-03T05:16:53;1.80;;;0.88;;
21567;SDS011;10944;42.590;12.630;2023-04-03T05:19:22;3.28;;;1.10;;
21567;SDS011;10944;42.590;12.630;2023-04-03T05:21:48;6.55;;;1.10;;
21567;SDS011;10944;42.590;12.630;2023-04-03T05:24:14;1.92;;;1.00;;
21567;SDS011;10944;42.590;12.630;2023-04-03T05:26:41;2.33;;;0.82;;
21567;SDS011;10944;42.590;12.630;2023-04-03T05:29:07;1.85;;;1.00;;
21567;SDS011;10944;42.590;12.630;2023-04-03T05:31:33;2.35;;;1.00;;
21567;SDS011;10944;42.590;12.630;2023-04-03T05:33:59;3.00;;;1.00;;
21567;SDS011;10944;42.590;12.630;2023-04-03T05:36:25;2.33;;;0.90;;
21567;SDS011;10944;42.590;12.630;2023-04-03T05:38:51;6.03;;;1.10;;
21567;SDS011;10944;42.590;12.630;2023-04-03T05:41:17;2.15;;;0.93;;
21567;SDS011;10944;42.590;12.630;2023-04-03T05:43:43;2.70;;;1.10;;
21567;SDS011;10944;42.590;12.630;2023-04-03T05:46:10;2.88;;;1.10;;
21567;SDS011;10944;42.590;12.630;2023-04-03T05:48:41;2.15;;;0.80;;
21567;SDS011;10944;42.590;12.630;2023-04-03T05:51:09;1.75;;;0.90;;
21567;SDS011;10944;42.590;12.630;2023-04-03T05:53:42;3.13;;;0.90;;
21567;SDS011;10944;42.590;12.630;2023-04-03T05:56:10;1.88;;;1.00;;
21567;SDS011;10944;42.590;12.630;2023-04-03T05:58:36;1.45;;;0.82;;
21567;SDS011;10944;42.590;12.630;2023-04-03T06:01:01;1.90;;;0.90;;
21567;SDS011;10944;42.590;12.630;2023-04-03T06:03:27;2.05;;;0.88;;
21567;SDS011;10944;42.590;12.630;2023-04-03T06:05:53;3.00;;;0.90;;
21567;SDS011;10944;42.590;12.630;2023-04-03T06:08:18;2.42;;;0.90;;
21567;SDS011;10944;42.590;12.630;2023-04-03T06:10:44;3.50;;;1.02;;
21567;SDS011;10944;42.590;12.630;2023-04-03T06:13:10;1.52;;;0.88;;
21567;SDS011;10944;42.590;12.630;2023-04-03T06:15:37;1.30;;;0.80;;
21567;SDS011;10944;42.590;12.630;2023-04-03T06:18:03;1.85;;;0.70;;
21567;SDS011;10944;42.590;12.630;2023-04-03T06:20:29;3.15;;;0.80;;
21567;SDS011;10944;42.590;12.630;2023-04-03T06:22:56;1.63;;;0.65;;
21567;SDS011;10944;42.590;12.630;2023-04-03T06:25:22;2.08;;;0.80;;
21567;SDS011;10944;42.590;12.630;2023-04-03T06:27:47;1.60;;;0.85;;
21567;SDS011;10944;42.590;12.630;2023-04-03T06:30:13;2.40;;;1.17;;
21567;SDS011;10944;42.590;12.630;2023-04-03T06:32:39;2.05;;;1.05;;
21567;SDS011;10944;42.590;12.630;2023-04-03T06:35:05;1.80;;;0.60;;
21567;SDS011;10944;42.590;12.630;2023-04-03T06:37:31;1.77;;;0.70;;
21567;SDS011;10944;42.590;12.630;2023-04-03T06:39:57;1.92;;;0.70;;
21567;SDS011;10944;42.590;12.630;2023-04-03T06:42:25;2.05;;;0.60;;
21567;SDS011;10944;42.590;12.630;2023-04-03T06:44:51;1.60;;;0.60;;
21567;SDS011;10944;42.590;12.630;2023-04-03T06:47:17;1.63;;;0.75;;
21567;SDS011;10944;42.590;12.630;2023-04-03T06:49:43;2.38;;;0.60;;
21567;SDS011;10944;42.590;12.630;2023-04-03T06:52:09;1.35;;;0.63;;
21567;SDS011;10944;42.590;12.630;2023-04-03T06:54:37;3.40;;;0.70;;
21567;SDS011;10944;42.590;12.630;2023-04-03T06:57:03;1.92;;;0.60;;
21567;SDS011;10944;42.590;12.630;2023-04-03T06:59:29;2.05;;;0.70;;
21567;SDS011;10944;42.590;12.630;2023-04-03T07:01:54;2.75;;;0.80;;
21567;SDS011;10944;42.590;12.630;2023-04-03T07:04:20;2.50;;;0.65;;
21567;SDS011;10944;42.590;12.630;2023-04-03T07:06:46;1.13;;;0.55;;
21567;SDS011;10944;42.590;12.630;2023-04-03T07:09:13;2.45;;;0.80;;
21567;SDS011;10944;42.590;12.630;2023-04-03T07:11:39;1.58;;;0.63;;
21567;SDS011;10944;42.590;12.630;2023-04-03T07:14:05;10.25;;;0.80;;
21567;SDS011;10944;42.590;12.630;2023-04-03T07:16:33;1.27;;;0.45;;
21567;SDS011;10944;42.590;12.630;2023-04-03T07:18:59;4.13;;;0.68;;
21567;SDS011;10944;42.590;12.630;2023-04-03T07:21:26;3.05;;;0.50;;
21567;SDS011;10944;42.590;12.630;2023-04-03T07:23:53;1.50;;;0.50;;
21567;SDS011;10944;42.590;12.630;2023-04-03T07:26:19;3.10;;;1.50;;
21567;SDS011;10944;42.590;12.630;2023-04-03T07:28:46;2.58;;;0.60;;
21567;SDS011;10944;42.590;12.630;2023-04-03T07:31:13;3.47;;;0.80;;
21567;SDS011;10944;42.590;12.630;2023-04-03T07:33:42;3.03;;;0.70;;
21567;SDS011;10944;42.590;12.630;2023-04-03T07:36:09;3.85;;;0.80;;
21567;SDS011;10944;42.590;12.630;2023-04-03T07:38:35;5.78;;;1.10;;
21567;SDS011;10944;42.590;12.630;2023-04-03T07:41:02;4.43;;;0.80;;
21567;SDS011;10944;42.590;12.630;2023-04-03T07:43:28;2.08;;;0.60;;
21567;SDS011;10944;42.590;12.630;2023-04-03T07:45:53;5.82;;;1.50;;
21567;SDS011;10944;42.590;12.630;2023-04-03T07:48:22;3.10;;;0.80;;
21567;SDS011;10944;42.590;12.630;2023-04-03T07:50:51;6.15;;;1.20;;
21567;SDS011;10944;42.590;12.630;2023-04-03T07:53:17;3.22;;;0.60;;
21567;SDS011;10944;42.590;12.630;2023-04-03T07:55:45;2.75;;;0.70;;
21567;SDS011;10944;42.590;12.630;2023-04-03T07:58:13;1.33;;;0.50;;
21567;SDS011;10944;42.590;12.630;2023-04-03T08:00:42;4.97;;;0.70;;
21567;SDS011;10944;42.590;12.630;2023-04-03T08:03:09;8.48;;;0.63;;
21567;SDS011;10944;42.590;12.630;2023-04-03T08:05:36;3.38;;;0.70;;
21567;SDS011;10944;42.590;12.630;2023-04-03T08:08:03;3.05;;;0.77;;
21567;SDS011;10944;42.590;12.630;2023-04-03T08:10:29;4.05;;;0.60;;
21567;SDS011;10944;42.590;12.630;2023-04-03T08:12:55;3.13;;;0.70;;
21567;SDS011;10944;42.590;12.630;2023-04-03T08:15:21;2.58;;;0.68;;
21567;SDS011;10944;42.590;12.630;2023-04-03T08:17:47;2.70;;;0.63;;
21567;SDS011;10944;42.590;12.630;2023-04-03T08:20:13;4.88;;;0.80;;
21567;SDS011;10944;42.590;12.630;2023-04-03T08:22:39;4.43;;;0.73;;
21567;SDS011;10944;42.590;12.630;2023-04-03T08:25:04;4.85;;;0.82;;
21567;SDS011;10944;42.590;12.630;2023-04-03T08:27:30;2.80;;;0.70;;
21567;SDS011;10944;42.590;12.630;2023-04-03T08:29:56;5.97;;;1.20;;
21567;SDS011;10944;42.590;12.630;2023-04-03T08:32:22;5.00;;;0.70;;
21567;SDS011;10944;42.590;12.630;2023-04-03T08:34:49;3.30;;;0.80;;
21567;SDS011;10944;42.590;12.630;2023-04-03T08:37:15;7.03;;;0.93;;
21567;SDS011;10944;42.590;12.630;2023-04-03T08:39:41;2.15;;;0.75;;
21567;SDS011;10944;42.590;12.630;2023-04-03T08:42:15;8.30;;;4.00;;
21567;SDS011;10944;42.590;12.630;2023-04-03T08:44:58;4.25;;;1.10;;
21567;SDS011;10944;42.590;12.630;2023-04-03T08:50:19;3.13;;;0.80;;
21567;SDS011;10944;42.590;12.630;2023-04-03T08:52:50;2.65;;;0.73;;
21567;SDS011;10944;42.590;12.630;2023-04-03T08:58:12;3.78;;;1.20;;
21567;SDS011;10944;42.590;12.630;2023-04-03T09:00:46;3.30;;;0.95;;
21567;SDS011;10944;42.590;12.630;2023-04-03T09:03:20;5.50;;;0.85;;
21567;SDS011;10944;42.590;12.630;2023-04-03T09:05:51;4.40;;;1.20;;
21567;SDS011;10944;42.590;12.630;2023-04-03T09:08:25;4.13;;;1.20;;
21567;SDS011;10944;42.590;12.630;2023-04-03T09:16:20;6.35;;;1.20;;
21567;SDS011;10944;42.590;12.630;2023-04-03T09:21:36;7.80;;;1.40;;
21567;SDS011;10944;42.590;12.630;2023-04-03T09:24:04;6.15;;;1.65;;
21567;SDS011;10944;42.590;12.630;2023-04-03T09:27:17;4.82;;;1.45;;
21567;SDS011;10944;42.590;12.630;2023-04-03T09:29:24;5.28;;;1.38;;
21567;SDS011;10944;42.590;12.630;2023-04-03T09:31:56;5.40;;;1.30;;
21567;SDS011;10944;42.590;12.630;2023-04-03T09:34:29;7.53;;;1.52;;
21567;SDS011;10944;42.590;12.630;2023-04-03T09:37:02;7.32;;;1.30;;
21567;SDS011;10944;42.590;12.630;2023-04-03T09:39:48;6.03;;;1.60;;
21567;SDS011;10944;42.590;12.630;2023-04-03T09:42:21;7.38;;;1.50;;
21567;SDS011;10944;42.590;12.630;2023-04-03T09:45:01;7.15;;;1.80;;
21567;SDS011;10944;42.590;12.630;2023-04-03T09:47:34;9.88;;;1.77;;
21567;SDS011;10944;42.590;12.630;2023-04-03T09:52:43;6.03;;;1.45;;
21567;SDS011;10944;42.590;12.630;2023-04-03T09:55:14;9.75;;;1.80;;
21567;SDS011;10944;42.590;12.630;2023-04-03T09:57:52;6.63;;;1.75;;
21567;SDS011;10944;42.590;12.630;2023-04-03T10:00:20;8.02;;;1.88;;
21567;SDS011;10944;42.590;12.630;2023-04-03T10:02:46;7.43;;;1.73;;
21567;SDS011;10944;42.590;12.630;2023-04-03T10:08:07;8.10;;;1.80;;
21567;SDS011;10944;42.590;12.630;2023-04-03T10:10:44;10.15;;;1.95;;
21567;SDS011;10944;42.590;12.630;2023-04-03T10:13:12;8.65;;;1.60;;
21567;SDS011;10944;42.590;12.630;2023-04-03T10:16:06;7.35;;;1.77;;
21567;SDS011;10944;42.590;12.630;2023-04-03T10:35:30;6.00;;;1.27;;
21567;SDS011;10944;42.590;12.630;2023-04-03T10:41:05;7.03;;;1.60;;
21567;SDS011;10944;42.590;12.630;2023-04-03T10:43:36;5.45;;;1.70;;
21567;SDS011;10944;42.590;12.630;2023-04-03T10:46:04;7.97;;;1.75;;
21567;SDS011;10944;42.590;12.630;2023-04-03T10:54:05;8.45;;;1.92;;
21567;SDS011;10944;42.590;12.630;2023-04-03T10:56:54;6.78;;;1.83;;
21567;SDS011;10944;42.590;12.630;2023-04-03T10:59:32;10.32;;;1.70;;
21567;SDS011;10944;42.590;12.630;2023-04-03T11:02:25;6.80;;;1.80;;
21567;SDS011;10944;42.590;12.630;2023-04-03T11:05:02;4.50;;;1.60;;
21567;SDS011;10944;42.590;12.630;2023-04-03T11:07:38;5.47;;;1.52;;
21567;SDS011;10944;42.590;12.630;2023-04-03T11:10:18;6.82;;;1.50;;
21567;SDS011;10944;42.590;12.630;2023-04-03T11:12:51;6.38;;;1.90;;
21567;SDS011;10944;42.590;12.630;2023-04-03T11:15:22;6.55;;;1.58;;
21567;SDS011;10944;42.590;12.630;2023-04-03T11:18:04;6.95;;;1.75;;
21567;SDS011;10944;42.590;12.630;2023-04-03T11:20:36;6.63;;;1.88;;
21567;SDS011;10944;42.590;12.630;2023-04-03T11:25:49;5.95;;;1.40;;
21567;SDS011;10944;42.590;12.630;2023-04-03T11:28:18;6.22;;;1.40;;
21567;SDS011;10944;42.590;12.630;2023-04-03T11:30:49;6.47;;;1.50;;
21567;SDS011;10944;42.590;12.630;2023-04-03T11:36:21;9.60;;;1.67;;
21567;SDS011;10944;42.590;12.630;2023-04-03T11:38:48;9.82;;;2.40;;
21567;SDS011;10944;42.590;12.630;2023-04-03T11:41:16;9.25;;;1.65;;
21567;SDS011;10944;42.590;12.630;2023-04-03T12:13:41;6.22;;;1.20;;
21567;SDS011;10944;42.590;12.630;2023-04-03T12:24:29;5.60;;;1.38;;
21567;SDS011;10944;42.590;12.630;2023-04-03T12:27:04;5.63;;;1.38;;
21567;SDS011;10944;42.590;12.630;2023-04-03T12:32:40;7.75;;;1.48;;
21567;SDS011;10944;42.590;12.630;2023-04-03T12:46:33;5.50;;;1.20;;
21567;SDS011;10944;42.590;12.630;2023-04-03T12:49:05;4.82;;;1.20;;
21567;SDS011;10944;42.590;12.630;2023-04-03T12:51:56;5.00;;;1.20;;
21567;SDS011;10944;42.590;12.630;2023-04-03T12:54:36;3.47;;;1.17;;
21567;SDS011;10944;42.590;12.630;2023-04-03T12:57:11;6.63;;;1.83;;
21567;SDS011;10944;42.590;12.630;2023-04-03T12:59:41;5.85;;;1.38;;
21567;SDS011;10944;42.590;12.630;2023-04-03T13:02:32;3.70;;;1.15;;
21567;SDS011;10944;42.590;12.630;2023-04-03T13:04:59;3.75;;;1.20;;
21567;SDS011;10944;42.590;12.630;2023-04-03T13:07:33;3.33;;;1.15;;
21567;SDS011;10944;42.590;12.630;2023-04-03T13:12:32;4.63;;;1.20;;
21567;SDS011;10944;42.590;12.630;2023-04-03T13:15:00;4.57;;;1.30;;
21567;SDS011;10944;42.590;12.630;2023-04-03T13:17:38;5.68;;;1.20;;
21567;SDS011;10944;42.590;12.630;2023-04-03T13:20:13;6.13;;;1.50;;
21567;SDS011;10944;42.590;12.630;2023-04-03T13:22:46;4.88;;;1.55;;
21567;SDS011;10944;42.590;12.630;2023-04-03T13:25:18;5.15;;;1.38;;
21567;SDS011;10944;42.590;12.630;2023-04-03T13:27:46;6.75;;;1.50;;
21567;SDS011;10944;42.590;12.630;2023-04-03T13:30:23;7.40;;;1.60;;
21567;SDS011;10944;42.590;12.630;2023-04-03T13:32:55;5.00;;;1.40;;
21567;SDS011;10944;42.590;12.630;2023-04-03T13:37:55;5.65;;;1.38;;
21567;SDS011;10944;42.590;12.630;2023-04-03T13:40:26;5.38;;;1.60;;
21567;SDS011;10944;42.590;12.630;2023-04-03T13:43:26;8.30;;;1.88;;
21567;SDS011;10944;42.590;12.630;2023-04-03T13:45:59;4.65;;;1.48;;
21567;SDS011;10944;42.590;12.630;2023-04-03T13:48:46;6.85;;;1.48;;
21567;SDS011;10944;42.590;12.630;2023-04-03T13:53:47;6.10;;;1.70;;
21567;SDS011;10944;42.590;12.630;2023-04-03T13:56:20;8.32;;;2.47;;
21567;SDS011;10944;42.590;12.630;2023-04-03T13:58:58;11.35;;;2.13;;
21567;SDS011;10944;42.590;12.630;2023-04-03T14:01:37;7.72;;;1.60;;
21567;SDS011;10944;42.590;12.630;2023-04-03T14:04:28;8.75;;;1.90;;
21567;SDS011;10944;42.590;12.630;2023-04-03T14:06:56;6.35;;;1.40;;
21567;SDS011;10944;42.590;12.630;2023-04-03T14:09:22;7.95;;;1.75;;
21567;SDS011;10944;42.590;12.630;2023-04-03T14:11:50;8.57;;;1.60;;
21567;SDS011;10944;42.590;12.630;2023-04-03T14:14:29;6.03;;;1.40;;
21567;SDS011;10944;42.590;12.630;2023-04-03T14:16:58;5.60;;;1.38;;
21567;SDS011;10944;42.590;12.630;2023-04-03T14:19:27;7.28;;;1.60;;
21567;SDS011;10944;42.590;12.630;2023-04-03T14:21:58;8.05;;;1.75;;
21567;SDS011;10944;42.590;12.630;2023-04-03T14:24:26;8.00;;;1.30;;
21567;SDS011;10944;42.590;12.630;2023-04-03T14:26:53;10.50;;;1.45;;
21567;SDS011;10944;42.590;12.630;2023-04-03T14:29:20;6.25;;;1.40;;
21567;SDS011;10944;42.590;12.630;2023-04-03T14:31:47;5.50;;;1.38;;
21567;SDS011;10944;42.590;12.630;2023-04-03T14:34:14;4.95;;;1.95;;
21567;SDS011;10944;42.590;12.630;2023-04-03T14:36:41;7.30;;;1.35;;
21567;SDS011;10944;42.590;12.630;2023-04-03T14:39:10;6.43;;;1.65;;
21567;SDS011;10944;42.590;12.630;2023-04-03T14:41:42;5.65;;;1.35;;
21567;SDS011;10944;42.590;12.630;2023-04-03T14:44:08;6.10;;;1.48;;
21567;SDS011;10944;42.590;12.630;2023-04-03T14:46:35;6.43;;;1.50;;
21567;SDS011;10944;42.590;12.630;2023-04-03T14:49:03;8.35;;;1.40;;
21567;SDS011;10944;42.590;12.630;2023-04-03T14:51:37;7.28;;;1.75;;
21567;SDS011;10944;42.590;12.630;2023-04-03T14:54:03;5.65;;;1.35;;
21567;SDS011;10944;42.590;12.630;2023-04-03T14:56:30;3.22;;;1.25;;
21567;SDS011;10944;42.590;12.630;2023-04-03T14:58:57;6.72;;;1.85;;
21567;SDS011;10944;42.590;12.630;2023-04-03T15:01:24;8.20;;;1.45;;
21567;SDS011;10944;42.590;12.630;2023-04-03T15:03:51;9.95;;;1.77;;
21567;SDS011;10944;42.590;12.630;2023-04-03T15:06:17;5.93;;;1.45;;
21567;SDS011;10944;42.590;12.630;2023-04-03T15:08:43;7.97;;;1.77;;
21567;SDS011;10944;42.590;12.630;2023-04-03T15:11:10;6.68;;;1.48;;
21567;SDS011;10944;42.590;12.630;2023-04-03T15:13:37;4.78;;;1.25;;
21567;SDS011;10944;42.590;12.630;2023-04-03T15:16:04;6.43;;;1.38;;
21567;SDS011;10944;42.590;12.630;2023-04-03T15:18:39;6.28;;;1.60;;
21567;SDS011;10944;42.590;12.630;2023-04-03T15:21:05;15.05;;;6.72;;
21567;SDS011;10944;42.590;12.630;2023-04-03T15:23:30;9.30;;;1.60;;
21567;SDS011;10944;42.590;12.630;2023-04-03T15:25:57;5.05;;;1.27;;
21567;SDS011;10944;42.590;12.630;2023-04-03T15:28:25;6.28;;;1.60;;
21567;SDS011;10944;42.590;12.630;2023-04-03T15:30:57;5.43;;;1.38;;
21567;SDS011;10944;42.590;12.630;2023-04-03T15:33:24;6.03;;;1.48;;
21567;SDS011;10944;42.590;12.630;2023-04-03T15:35:50;7.45;;;1.40;;
21567;SDS011;10944;42.590;12.630;2023-04-03T15:38:16;5.82;;;1.25;;
21567;SDS011;10944;42.590;12.630;2023-04-03T15:40:42;6.70;;;1.50;;
21567;SDS011;10944;42.590;12.630;2023-04-03T15:43:08;5.20;;;1.40;;
21567;SDS011;10944;42.590;12.630;2023-04-03T15:45:35;4.85;;;1.40;;
21567;SDS011;10944;42.590;12.630;2023-04-03T15:48:03;5.82;;;1.20;;
21567;SDS011;10944;42.590;12.630;2023-04-03T15:50:30;5.43;;;1.52;;
21567;SDS011;10944;42.590;12.630;2023-04-03T15:52:57;8.32;;;1.50;;
21567;SDS011;10944;42.590;12.630;2023-04-03T15:55:24;4.95;;;1.42;;
21567;SDS011;10944;42.590;12.630;2023-04-03T15:57:51;3.88;;;1.30;;
21567;SDS011;10944;42.590;12.630;2023-04-03T16:00:17;5.90;;;1.33;;
21567;SDS011;10944;42.590;12.630;2023-04-03T16:02:45;5.88;;;1.30;;
21567;SDS011;10944;42.590;12.630;2023-04-03T16:05:12;4.03;;;1.30;;
21567;SDS011;10944;42.590;12.630;2023-04-03T16:07:40;4.43;;;1.20;;
21567;SDS011;10944;42.590;12.630;2023-04-03T16:10:07;4.50;;;1.27;;
21567;SDS011;10944;42.590;12.630;2023-04-03T16:12:34;8.82;;;1.58;;
21567;SDS011;10944;42.590;12.630;2023-04-03T16:15:00;6.88;;;1.30;;
21567;SDS011;10944;42.590;12.630;2023-04-03T16:17:26;8.60;;;1.85;;
21567;SDS011;10944;42.590;12.630;2023-04-03T16:19:53;7.50;;;1.73;;
21567;SDS011;10944;42.590;12.630;2023-04-03T16:22:20;7.55;;;1.92;;
21567;SDS011;10944;42.590;12.630;2023-04-03T16:24:48;9.15;;;1.70;;
21567;SDS011;10944;42.590;12.630;2023-04-03T16:27:14;4.43;;;1.60;;
21567;SDS011;10944;42.590;12.630;2023-04-03T16:29:41;6.30;;;1.60;;
21567;SDS011;10944;42.590;12.630;2023-04-03T16:32:07;4.10;;;1.40;;
21567;SDS011;10944;42.590;12.630;2023-04-03T16:34:32;6.85;;;1.83;;
21567;SDS011;10944;42.590;12.630;2023-04-03T16:36:59;6.85;;;1.60;;
21567;SDS011;10944;42.590;12.630;2023-04-03T16:39:25;6.13;;;1.52;;
21567;SDS011;10944;42.590;12.630;2023-04-03T16:41:51;5.47;;;1.38;;